Time;durP1;ratioP1;P1;durP2;ratioP2;P2;SDS_P1;SDS_P2;PMS_P1;PMS_P2;Temp;Humidity;BMP_temperature;BMP_pressure;BME280_temperature;BME280_humidity;BME280_pressure;Samples;Min_cycle;Max_cycle;Signal;HPM_P1;HPM_P2
2022/04/24 00:01:30;;;;;;;12.50;8.30;;;;;;;;;;4706807;30;20048;-93
2022/04/24 00:03:56;;;;;;;9.23;7.90;;;;;;;;;;4706166;30;20174;-87
2022/04/24 00:06:22;;;;;;;10.20;7.63;;;;;;;;;;4691808;30;20076;-87
2022/04/24 00:08:49;;;;;;;9.60;7.60;;;;;;;;;;4720583;30;20050;-88
2022/04/24 00:11:15;;;;;;;10.73;8.35;;;;;;;;;;4720821;30;20056;-84
2022/04/24 00:13:42;;;;;;;10.52;8.25;;;;;;;;;;4721715;30;20058;-84
2022/04/24 00:16:09;;;;;;;10.02;7.65;;;;;;;;;;4720118;30;20164;-85
2022/04/24 00:18:35;;;;;;;10.98;7.68;;;;;;;;;;4720474;30;20057;-85
2022/04/24 00:21:01;;;;;;;17.30;7.95;;;;;;;;;;4719858;30;20061;-84
2022/04/24 00:23:28;;;;;;;7.60;6.53;;;;;;;;;;4721043;30;20049;-85
2022/04/24 00:25:54;;;;;;;7.38;6.43;;;;;;;;;;4719810;30;20118;-85
2022/04/24 00:28:23;;;;;;;10.23;7.60;;;;;;;;;;4719782;30;20060;-85
2022/04/24 00:30:49;;;;;;;8.18;7.30;;;;;;;;;;4721058;30;20435;-85
2022/04/24 00:33:15;;;;;;;10.23;7.03;;;;;;;;;;4721102;30;20139;-84
2022/04/24 00:35:41;;;;;;;9.50;7.25;;;;;;;;;;4721367;30;20055;-85
2022/04/24 00:38:07;;;;;;;11.23;7.30;;;;;;;;;;4719920;30;20418;-85
2022/04/24 00:40:33;;;;;;;8.70;6.90;;;;;;;;;;4720938;30;20052;-85
2022/04/24 00:42:59;;;;;;;7.43;6.43;;;;;;;;;;4720735;30;20049;-85
2022/04/24 00:45:26;;;;;;;9.63;7.28;;;;;;;;;;4721365;30;20060;-85
2022/04/24 00:47:52;;;;;;;9.88;6.95;;;;;;;;;;4721443;30;20158;-86
2022/04/24 00:50:18;;;;;;;8.15;7.05;;;;;;;;;;4690983;30;20407;-85
2022/04/24 00:52:46;;;;;;;9.32;7.10;;;;;;;;;;4721393;30;20099;-85
2022/04/24 00:55:12;;;;;;;9.50;6.68;;;;;;;;;;4722087;30;20049;-94
2022/04/24 00:57:41;;;;;;;7.53;6.20;;;;;;;;;;4692264;30;20049;-93
2022/04/24 01:00:07;;;;;;;10.23;6.72;;;;;;;;;;4692054;30;20403;-93
2022/04/24 01:02:33;;;;;;;11.50;7.53;;;;;;;;;;4692278;30;20052;-93
2022/04/24 01:05:00;;;;;;;13.13;7.53;;;;;;;;;;4692696;30;20193;-88
2022/04/24 01:07:27;;;;;;;11.10;7.97;;;;;;;;;;4692440;30;20065;-88
2022/04/24 01:09:53;;;;;;;8.23;6.53;;;;;;;;;;4693075;30;20053;-90
2022/04/24 01:12:19;;;;;;;11.05;8.70;;;;;;;;;;4720950;30;20427;-88
2022/04/24 01:14:45;;;;;;;9.13;7.43;;;;;;;;;;4721122;30;20067;-89
2022/04/24 01:17:11;;;;;;;9.05;6.75;;;;;;;;;;4692586;30;20107;-88
2022/04/24 01:19:37;;;;;;;11.48;7.97;;;;;;;;;;4691596;30;20135;-88
2022/04/24 01:22:03;;;;;;;10.82;7.47;;;;;;;;;;4719969;30;20060;-92
2022/04/24 01:24:30;;;;;;;9.70;7.57;;;;;;;;;;4692016;30;20049;-92
2022/04/24 01:26:56;;;;;;;9.65;7.60;;;;;;;;;;4721648;30;20052;-92
2022/04/24 01:29:22;;;;;;;8.00;6.82;;;;;;;;;;4721448;30;20479;-90
2022/04/24 01:31:48;;;;;;;8.85;6.93;;;;;;;;;;4720209;30;20056;-89
2022/04/24 01:34:15;;;;;;;11.75;7.07;;;;;;;;;;4691001;30;20092;-90
2022/04/24 01:36:41;;;;;;;11.38;7.60;;;;;;;;;;4721368;30;20057;-94
2022/04/24 01:39:08;;;;;;;10.35;8.00;;;;;;;;;;4719747;30;20136;-88
2022/04/24 01:41:34;;;;;;;9.20;7.60;;;;;;;;;;4691134;30;20414;-93
2022/04/24 01:44:00;;;;;;;11.93;7.18;;;;;;;;;;4690894;30;20056;-91
2022/04/24 01:46:26;;;;;;;7.47;6.72;;;;;;;;;;4691491;30;20115;-88
2022/04/24 01:48:52;;;;;;;17.63;8.00;;;;;;;;;;4690728;30;20111;-90
2022/04/24 01:51:19;;;;;;;10.05;7.57;;;;;;;;;;4719748;30;20107;-92
2022/04/24 01:53:45;;;;;;;10.75;8.05;;;;;;;;;;4705489;30;20476;-93
2022/04/24 01:56:11;;;;;;;8.77;7.88;;;;;;;;;;4705283;30;20060;-87
2022/04/24 01:58:38;;;;;;;13.95;8.25;;;;;;;;;;4719438;30;20049;-87
2022/04/24 02:01:05;;;;;;;8.30;7.25;;;;;;;;;;4720943;30;20080;-91
2022/04/24 02:03:31;;;;;;;10.70;7.95;;;;;;;;;;4721108;30;20064;-91
2022/04/24 02:05:57;;;;;;;10.35;7.70;;;;;;;;;;4719532;30;20518;-90
2022/04/24 02:08:23;;;;;;;10.40;7.43;;;;;;;;;;4720102;30;20061;-88
2022/04/24 02:10:49;;;;;;;9.32;7.05;;;;;;;;;;4689208;30;20049;-85
2022/04/24 02:13:16;;;;;;;9.68;8.00;;;;;;;;;;4718003;30;20063;-85
2022/04/24 02:15:43;;;;;;;10.05;7.70;;;;;;;;;;4717996;30;20111;-85
2022/04/24 02:18:09;;;;;;;14.30;7.70;;;;;;;;;;4689424;30;20052;-85
2022/04/24 02:20:35;;;;;;;15.20;8.90;;;;;;;;;;4689131;30;20144;-85
2022/04/24 02:23:01;;;;;;;12.63;8.27;;;;;;;;;;4689293;30;20513;-85
2022/04/24 02:25:28;;;;;;;9.65;8.30;;;;;;;;;;4689643;30;20057;-85
2022/04/24 02:27:55;;;;;;;11.30;7.82;;;;;;;;;;4718566;30;20111;-85
2022/04/24 02:30:21;;;;;;;10.82;8.40;;;;;;;;;;4689568;30;20053;-85
2022/04/24 02:32:47;;;;;;;9.52;7.47;;;;;;;;;;4717758;30;20053;-85
2022/04/24 02:35:16;;;;;;;15.90;8.30;;;;;;;;;;4688727;30;20064;-85
2022/04/24 02:37:43;;;;;;;12.57;7.90;;;7.90;99.90;;;;;;4689019;30;20503;-85
2022/04/24 02:40:14;;;;;;;8.52;7.57;;;;;;;;;;4688783;30;20096;-84
2022/04/24 02:42:40;;;;;;;9.98;7.85;;;;;;;;;;4688838;30;20057;-85
2022/04/24 02:45:09;;;;;;;15.82;8.48;;;;;;;;;;4717724;30;20102;-85
2022/04/24 02:47:38;;;;;;;17.10;8.40;;;;;;;;;;4717489;30;20067;-84
2022/04/24 02:50:04;;;;;;;12.20;8.93;;;;;;;;;;4689201;30;20060;-84
2022/04/24 02:52:30;;;;;;;11.65;7.82;;;;;;;;;;4688603;30;20076;-84
2022/04/24 02:54:56;;;;;;;11.05;7.40;;;;;;;;;;4717430;30;20150;-84
2022/04/24 02:57:22;;;;;;;10.88;7.97;;;;;;;;;;4717632;30;20056;-84
2022/04/24 02:59:49;;;;;;;10.48;6.50;;;;;;;;;;4688515;30;20053;-84
2022/04/24 03:02:18;;;;;;;9.85;7.75;;;;;;;;;;4689868;30;20499;-89
2022/04/24 03:04:45;;;;;;;13.73;8.82;;;;;;;;;;4689587;30;20057;-86
2022/04/24 03:07:12;;;;;;;9.13;7.63;;;;;;;;;;4689624;30;20071;-91
2022/04/24 03:09:39;;;;;;;10.07;7.85;;;;;;;;;;4720168;30;20049;-94
2022/04/24 03:12:06;;;;;;;12.13;7.22;;;;;;;;;;4689848;30;20107;-88
2022/04/24 03:14:32;;;;;;;11.65;8.38;;;;;;;;;;4690747;30;20111;-90
2022/04/24 03:16:58;;;;;;;13.43;8.13;;;;;;;;;;4689488;30;20057;-92
2022/04/24 03:19:25;;;;;;;7.93;6.70;;;;;;;;;;4719850;30;20053;-93
2022/04/24 03:21:51;;;;;;;11.23;8.25;;;;;;;;;;4718908;30;20083;-95
2022/04/24 03:24:17;;;;;;;11.32;7.03;;;;;;;;;;4719969;30;20053;-94
2022/04/24 03:26:43;;;;;;;8.85;6.95;;;;;;;;;;4689757;30;20060;-91
2022/04/24 03:29:09;;;;;;;8.35;6.95;;;;;;;;;;4718326;30;20056;-88
2022/04/24 03:31:35;;;;;;;8.05;6.60;;;;;;;;;;4718261;30;20057;-90
2022/04/24 03:34:02;;;;;;;10.60;7.88;;;;;;;;;;4718559;30;20081;-92
2022/04/24 03:36:28;;;;;;;10.18;7.90;;;;;;;;;;4689454;30;20113;-91
2022/04/24 03:38:54;;;;;;;12.70;7.18;;;;;;;;;;4690056;30;20045;-94
2022/04/24 03:41:20;;;;;;;13.55;7.68;;;;;;;;;;4689541;30;20072;-91
2022/04/24 03:43:46;;;;;;;9.18;7.22;;;;;;;;;;4690719;30;20053;-94
2022/04/24 03:46:12;;;;;;;9.20;7.05;;;;;;;;;;4688583;30;20084;-90
2022/04/24 03:48:38;;;;;;;9.95;7.75;;;;;;;;;;4717416;30;20056;-89
2022/04/24 03:51:06;;;;;;;11.13;7.68;;;;;;;;;;4688836;30;20136;-91
2022/04/24 03:53:35;;;;;;;12.32;6.80;;;;;;;;;;4689207;30;20419;-88
2022/04/24 03:56:01;;;;;;;8.25;6.53;;;;;;;;;;4689389;30;20519;-90
2022/04/24 03:58:27;;;;;;;10.80;7.53;;;;;;;;;;4689479;30;20056;-91
2022/04/24 04:00:54;;;;;;;13.40;7.18;;;;;;;;;;4704127;30;20061;-89
2022/04/24 04:03:20;;;;;;;8.35;6.95;;;;;;;;;;4719066;30;20057;-91
2022/04/24 04:05:46;;;;;;;12.48;7.90;;;;;;;;;;4728804;30;20437;-85
2022/04/24 04:08:12;;;;;;;10.82;7.15;;;;;;;;;;4706065;30;20048;-85
2022/04/24 04:10:38;;;;;;;15.50;6.38;;;;;;;;;;4706265;30;20507;-85
2022/04/24 04:13:08;;;;;;;16.23;6.70;;;;;;;;;;4704990;30;20053;-85
2022/04/24 04:15:35;;;;;;;8.55;6.38;;;;;;;;;;4704898;30;20057;-85
2022/04/24 04:18:01;;;;;;;9.75;7.38;;;;;;;;;;4733967;30;20064;-85
2022/04/24 04:20:27;;;;;;;10.48;7.05;;;;;;;;;;4734221;30;20589;-85
2022/04/24 04:22:53;;;;;;;14.43;7.88;;;;;;;;;;4704893;30;20092;-84
2022/04/24 04:25:19;;;;;;;9.55;6.75;;;;;;;;;;4735369;30;20056;-84
2022/04/24 04:27:45;;;;;;;12.88;7.05;;;;;;;;;;4705939;30;20129;-85
2022/04/24 04:30:12;;;;;;;12.77;6.30;;;;;;;;;;4734169;30;20052;-84
2022/04/24 04:32:38;;;;;;;16.05;6.47;;;;;;;;;;4705187;30;20067;-83
2022/04/24 04:35:05;;;;;;;13.07;7.13;;;;;;;;;;4706243;30;20052;-87
2022/04/24 04:37:32;;;;;;;11.88;6.93;;;;;;;;;;4705617;30;20459;-85
2022/04/24 04:39:58;;;;;;;10.60;6.55;;;;;;;;;;4733598;30;20107;-86
2022/04/24 04:42:24;;;;;;;10.52;6.57;;;;;;;;;;4704661;30;20057;-84
2022/04/24 04:44:50;;;;;;;13.25;7.13;;;;;;;;;;4705523;30;20056;-85
2022/04/24 04:47:16;;;;;;;7.10;6.00;;;;;;;;;;4735295;30;20056;-85
2022/04/24 04:49:42;;;;;;;9.75;7.20;;;;;;;;;;4736257;30;20411;-84
2022/04/24 04:52:08;;;;;;;10.98;6.55;;;;;;;;;;4736287;30;20059;-85
2022/04/24 04:54:34;;;;;;;19.13;8.10;;;;;;;;;;4736050;30;20052;-84
2022/04/24 04:57:00;;;;;;;10.20;7.00;;;;;;;;;;4737122;30;20132;-85
2022/04/24 04:59:26;;;;;;;8.88;7.28;;;;;;;;;;4737630;30;20066;-84
2022/04/24 05:01:53;;;;;;;11.63;7.90;;;;;;;;;;4709155;30;20570;-85
2022/04/24 05:04:19;;;;;;;10.45;6.68;;;;;;;;;;4737866;30;20048;-85
2022/04/24 05:06:45;;;;;;;9.10;6.65;;;;;;;;;;4721110;30;20065;-85
2022/04/24 05:09:11;;;;;;;15.73;7.97;;;;;;;;;;4721477;30;20515;-85
2022/04/24 05:11:39;;;;;;;10.30;7.13;;;;;;;;;;4721600;30;20455;-85
2022/04/24 05:14:05;;;;;;;15.52;8.23;;;;;;;;;;4691931;30;20053;-86
2022/04/24 05:16:32;;;;;;;13.18;7.50;;;;;;;;;;4721149;30;20064;-85
2022/04/24 05:18:58;;;;;;;9.77;6.60;;;;;;;;;;4719741;30;20061;-85
2022/04/24 05:21:25;;;;;;;13.98;8.15;;;;;;;;;;4721741;30;20060;-85
2022/04/24 05:23:52;;;;;;;12.60;7.80;;;;;;;;;;4690017;30;20081;-85
2022/04/24 05:26:18;;;;;;;12.90;8.02;;;;;;;;;;4691029;30;20041;-85
2022/04/24 05:28:45;;;;;;;12.05;8.05;;;;;;;;;;4689500;30;20048;-85
2022/04/24 05:31:11;;;;;;;11.38;8.35;;;;;;;;;;4719232;30;20136;-85
2022/04/24 05:33:37;;;;;;;10.70;7.57;;;;;;;;;;4690290;30;20049;-86
2022/04/24 05:36:05;;;;;;;12.88;8.60;;;;;;;;;;4718645;30;20049;-85
2022/04/24 05:38:31;;;;;;;10.35;7.60;;;;;;;;;;4690609;30;20057;-86
2022/04/24 05:40:57;;;;;;;17.33;8.50;;;;;;;;;;4690882;30;20045;-88
2022/04/24 05:43:23;;;;;;;9.63;6.95;;;;;;;;;;4691078;30;20416;-91
2022/04/24 05:45:49;;;;;;;12.95;8.18;;;;;;;;;;4720686;30;20110;-95
2022/04/24 05:48:18;;;;;;;11.90;8.23;;;;;;;;;;4690566;30;20462;-92
2022/04/24 05:50:44;;;;;;;10.82;8.82;;;;;;;;;;4691423;30;20057;-91
2022/04/24 05:53:10;;;;;;;10.52;7.50;;;;;;;;;;4721193;30;20060;-89
2022/04/24 05:55:36;;;;;;;16.48;7.85;;;;;;;;;;4691721;30;20500;-91
2022/04/24 05:58:03;;;;;;;10.93;7.22;;;;;;;;;;4719705;30;20107;-96
2022/04/24 06:00:29;;;;;;;11.23;7.55;;;;;;;;;;4690582;30;20053;-90
2022/04/24 06:02:55;;;;;;;12.63;8.27;;;;;;;;;;4690750;30;20140;-92
2022/04/24 06:05:22;;;;;;;11.70;8.07;;;;;;;;;;4720812;30;20068;-86
2022/04/24 06:07:48;;;;;;;14.38;7.60;;;;;;;;;;4690964;30;20144;-91
2022/04/24 06:10:15;;;;;;;11.45;7.82;;;;;;;;;;4720256;30;20095;-85
2022/04/24 06:12:47;;;;;;;11.43;7.88;;;;;;;;;;4690857;30;20129;-94
2022/04/24 06:15:15;;;;;;;11.38;7.63;;;;;;;;;;4690615;30;20148;-90
2022/04/24 06:17:49;;;;;;;9.23;6.53;;;;;;;;;;4690181;30;20060;-85
2022/04/24 06:20:16;;;;;;;10.05;6.50;;;;;;;;;;4689482;30;20060;-93
2022/04/24 06:22:49;;;;;;;9.00;7.32;;;;;;;;;;4688428;30;20057;-85
2022/04/24 06:25:22;;;;;;;10.10;6.55;;;;;;;;;;4688276;30;20056;-85
2022/04/24 06:27:48;;;;;;;12.35;6.07;;;;;;;;;;4718140;30;20107;-85
2022/04/24 06:30:15;;;;;;;11.65;5.85;;;;;;;;;;4717638;30;20052;-85
2022/04/24 06:32:42;;;;;;;7.47;5.28;;;;;;;;;;4702931;30;20128;-85
2022/04/24 06:35:10;;;;;;;7.07;5.78;;;;;;;;;;4718440;30;20053;-85
2022/04/24 06:37:37;;;;;;;8.90;5.57;;;;;;;;;;4718776;30;20107;-85
2022/04/24 06:40:04;;;;;;;10.02;6.15;;;;;;;;;;4717281;30;20060;-84
2022/04/24 06:42:30;;;;;;;7.53;4.32;;;;;;;;;;4718700;30;20053;-85
2022/04/24 06:44:57;;;;;;;7.38;3.92;;;;;;;;;;4718538;30;20411;-84
2022/04/24 06:47:23;;;;;;;5.32;4.35;;;;;;;;;;4703196;30;20506;-84
2022/04/24 06:49:49;;;;;;;7.70;4.57;;;;;;;;;;4718529;30;20057;-84
2022/04/24 06:52:15;;;;;;;6.38;4.07;;;;;;;;;;4717483;30;20064;-85
2022/04/24 06:54:41;;;;;;;5.35;4.03;;;;;;;;;;4717012;30;20444;-85
2022/04/24 06:57:07;;;;;;;5.95;4.10;;;;;;;;;;4688876;30;20056;-85
2022/04/24 06:59:33;;;;;;;4.50;3.58;;;;;;;;;;4717851;30;20056;-85
2022/04/24 07:01:59;;;;;;;8.68;3.58;;;;;;;;;;4719244;30;20064;-85
2022/04/24 07:04:25;;;;;;;5.63;3.53;;;;;;;;;;4688473;30;20121;-85
2022/04/24 07:06:54;;;;;;;5.03;3.22;;;;;;;;;;4688237;30;20096;-85
2022/04/24 07:09:20;;;;;;;8.98;4.65;;;;;;;;;;4689548;30;20111;-89
2022/04/24 07:11:46;;;;;;;3.55;3.08;;;;;;;;;;4689517;30;20095;-87
2022/04/24 07:14:12;;;;;;;7.75;3.35;;;;;;;;;;4689479;30;20052;-89
2022/04/24 07:16:39;;;;;;;7.03;2.78;;;;;;;;;;4689885;30;20503;-92
2022/04/24 07:19:05;;;;;;;7.35;3.47;;;;;;;;;;4690750;30;20057;-91
2022/04/24 07:21:32;;;;;;;4.32;2.70;;;;;;;;;;4690766;30;20102;-90
2022/04/24 07:23:58;;;;;;;3.75;2.97;;;;;;;;;;4721315;30;20064;-95
2022/04/24 07:26:24;;;;;;;5.95;2.50;;;;;;;;;;4692483;30;20063;-89
2022/04/24 07:28:50;;;;;;;3.95;2.50;;;;;;;;;;4691926;30;20060;-94
2022/04/24 07:31:19;;;;;;;6.40;2.70;;;;;;;;;;4720028;30;20057;-91
2022/04/24 07:33:45;;;;;;;6.13;2.80;;;;;;;;;;4690188;30;20072;-89
2022/04/24 07:36:11;;;;;;;4.97;3.13;;;;;;;;;;4690419;30;20419;-87
2022/04/24 07:38:37;;;;;;;5.28;2.42;;;;;;;;;;4690345;30;20053;-92
2022/04/24 07:41:04;;;;;;;2.78;2.45;;;;;;;;;;4689969;30;20082;-91
2022/04/24 07:43:33;;;;;;;3.05;2.70;;;;;;;;;;4705581;30;20053;-93
2022/04/24 07:46:02;;;;;;;3.78;2.50;;;;;;;;;;4719339;30;20416;-94
2022/04/24 07:48:28;;;;;;;3.63;2.35;;;;;;;;;;4690345;30;20511;-90
2022/04/24 07:50:54;;;;;;;3.40;2.92;;;;;;;;;;4691262;30;20188;-91
2022/04/24 07:53:21;;;;;;;4.28;2.80;;;;;;;;;;4719281;30;20053;-92
2022/04/24 07:55:48;;;;;;;4.15;2.65;;;;;;;;;;4690234;30;20498;-89
2022/04/24 07:58:14;;;;;;;5.22;3.40;;;;;;;;;;4690146;30;20079;-88
2022/04/24 08:00:41;;;;;;;6.97;2.83;;;;;;;;;;4690551;30;20057;-91
2022/04/24 08:03:08;;;;;;;5.63;2.90;;;;;;;;;;4690550;30;20056;-93
2022/04/24 08:05:38;;;;;;;5.30;3.25;;;;;;;;;;4690437;30;20140;-89
2022/04/24 08:08:06;;;;;;;5.88;3.00;;;;;;;;;;4690734;30;20081;-89
2022/04/24 08:10:33;;;;;;;3.88;2.97;;;;;;;;;;4718682;30;20061;-88
2022/04/24 08:13:00;;;;;;;4.50;3.00;;;;;;;;;;4718876;30;20061;-90
2022/04/24 08:15:26;;;;;;;5.95;3.65;;;;;;;;;;4690879;30;20049;-89
2022/04/24 08:17:52;;;;;;;5.22;3.38;;;;;;;;;;4690061;30;20057;-89
2022/04/24 08:20:18;;;;;;;6.75;2.95;;;;;;;;;;4691171;30;20049;-89
2022/04/24 08:22:48;;;;;;;4.35;3.20;;;;;;;;;;4719787;30;20060;-89
2022/04/24 08:25:15;;;;;;;5.93;3.15;;;;;;;;;;4690851;30;20092;-88
2022/04/24 08:27:41;;;;;;;4.95;2.78;;;;;;;;;;4693709;30;20476;-90
2022/04/24 08:30:09;;;;;;;4.93;3.30;;;;;;;;;;4694499;30;20053;-90
2022/04/24 08:32:35;;;;;;;6.82;3.22;;;;;;;;;;4693326;30;20060;-89
2022/04/24 08:35:01;;;;;;;4.80;3.38;;;;;;;;;;4722742;30;20139;-91
2022/04/24 08:37:28;;;;;;;3.30;3.00;;;;;;;;;;4723080;30;20075;-91
2022/04/24 08:39:55;;;;;;;4.13;2.80;;;;;;;;;;4723198;30;20136;-92
2022/04/24 08:42:23;;;;;;;4.03;3.05;;;;;;;;;;4694595;30;20057;-89
2022/04/24 08:44:50;;;;;;;5.28;2.75;;;;;;;;;;4694961;30;20561;-86
2022/04/24 08:47:17;;;;;;;9.25;3.15;;;;;;;;;;4725228;30;20103;-87
2022/04/24 08:49:43;;;;;;;4.53;3.72;;;;;;;;;;4696267;30;20477;-93
2022/04/24 08:52:10;;;;;;;6.63;3.55;;;;;;;;;;4694871;30;20056;-90
2022/04/24 08:54:43;;;;;;;4.97;3.28;;;;;;;;;;4694237;30;20052;-92
2022/04/24 08:57:09;;;;;;;5.55;3.22;;;;;;;;;;4723349;30;20045;-87
2022/04/24 08:59:38;;;;;;;7.88;2.92;;;;;;;;;;4724719;30;20140;-88
2022/04/24 09:02:05;;;;;;;7.30;3.17;;;;;;;;;;4693865;30;20052;-88
2022/04/24 09:04:34;;;;;;;3.70;3.05;;;;;;;;;;4722349;30;20496;-88
2022/04/24 09:07:01;;;;;;;5.25;3.50;;;;;;;;;;4722924;30;20060;-93
2022/04/24 09:09:28;;;;;;;3.70;2.63;;;;;;;;;;4694172;30;20092;-90
2022/04/24 09:12:07;;;;;;;3.47;3.15;;;;;;;;;;4721145;30;20407;-86
2022/04/24 09:14:33;;;;;;;6.70;3.45;;;;;;;;;;4720821;30;20053;-87
2022/04/24 09:17:01;;;;;;;9.52;3.03;;;;;;;;;;4691786;30;20063;-86
2022/04/24 09:19:27;;;;;;;5.90;2.88;;;;;;;;;;4691280;30;20056;-86
2022/04/24 09:22:01;;;;;;;5.85;3.47;;;;;;;;;;4705383;30;20053;-86
2022/04/24 09:24:44;;;;;;;5.35;3.83;;;;;;;;;;4721341;30;20120;-86
2022/04/24 09:27:11;;;;;;;8.15;3.40;;;;;;;;;;4722341;30;20111;-86
2022/04/24 09:29:39;;;;;;;5.80;3.35;;;;;;;;;;4720907;30;20088;-86
2022/04/24 09:32:12;;;;;;;11.88;3.03;;;13.40;99.90;;;;;;4720831;30;20558;-86
2022/04/24 09:34:38;;;;;;;4.70;3.28;;;;;;;;;;4720920;30;20045;-86
2022/04/24 09:37:09;;;;;;;5.63;2.55;;;;;;;;;;4705884;30;20049;-87
2022/04/24 09:39:35;;;;;;;6.88;2.90;;;;;;;;;;4705558;30;20057;-86
2022/04/24 09:42:03;;;;;;;7.97;3.53;;;;;;;;;;4689843;30;20074;-86
2022/04/24 09:44:36;;;;;;;3.58;2.97;;;;;;;;;;4719842;30;20075;-86
2022/04/24 09:47:09;;;;;;;;;;;13.60;99.90;;;;;;4720165;30;20088;-86
2022/04/24 09:49:37;;;;;;;3.63;2.40;;;;;;;;;;4720158;30;19926;-88
2022/04/24 09:52:14;;;;;;;16.83;5.25;;;;;;;;;;4704752;30;20406;-86
2022/04/24 09:54:45;;;;;;;2.47;2.28;;;;;;;;;;4704870;30;20049;-87
2022/04/24 09:57:13;;;;;;;4.47;2.72;;;;;;;;;;4718728;30;20052;-87
2022/04/24 09:59:41;;;;;;;5.90;2.30;;;;;;;;;;4689816;30;20495;-87
2022/04/24 10:02:08;;;;;;;5.70;2.70;;;;;;;;;;4718827;30;20581;-85
2022/04/24 10:04:35;;;;;;;3.47;2.58;;;;;;;;;;4719591;30;20132;-86
2022/04/24 10:07:03;;;;;;;5.25;2.83;;;;;;;;;;4737187;30;20522;-86
2022/04/24 10:09:30;;;;;;;9.82;3.55;;;;;;;;;;4706712;30;20052;-87
2022/04/24 10:12:05;;;;;;;6.07;3.03;;;;;;;;;;4735659;30;20051;-88
2022/04/24 10:14:33;;;;;;;6.22;3.17;;;;;;;;;;4736480;30;20475;-87
2022/04/24 10:17:11;;;;;;;7.88;4.20;;;;;;;;;;4721552;30;20099;-87
2022/04/24 10:19:44;;;;;;;3.80;3.00;;;;;;;;;;4736638;30;20107;-87
2022/04/24 10:22:17;;;;;;;4.43;3.03;;;;;;;;;;4721200;30;20136;-87
2022/04/24 10:24:44;;;;;;;6.07;3.22;;;;;;;;;;4721636;30;20144;-86
2022/04/24 10:27:12;;;;;;;5.30;3.08;;;;;;;;;;4736935;30;20048;-86
2022/04/24 10:29:59;;;;;;;9.43;3.47;;;;;;;;;;4707702;30;20073;-87
2022/04/24 10:32:32;;;;;;;4.72;3.33;;;;;;;;;;4706013;30;20060;-87
2022/04/24 10:34:59;;;;;;;6.10;3.47;;;;;;;;;;4721187;30;20053;-87
2022/04/24 10:37:33;;;;;;;5.82;3.80;;;;;;;;;;4706631;30;20502;-87
2022/04/24 10:40:00;;;;;;;6.78;3.35;;;;;;;;;;4720586;30;20048;-87
2022/04/24 10:42:30;;;;;;;5.20;3.00;;;;;;;;;;4736191;30;20060;-86
2022/04/24 10:45:03;;;;;;;9.93;4.05;;;;;;;;;;4721086;30;20052;-87
2022/04/24 10:47:40;;;;;;;4.70;3.00;;;;;;;;;;4736378;30;20084;-87
2022/04/24 10:50:06;;;;;;;7.45;3.15;;;;;;;;;;4735116;30;20081;-88
2022/04/24 10:52:45;;;;;;;5.25;3.60;;;;;;;;;;4706125;30;20194;-88
2022/04/24 10:55:16;;;;;;;10.40;3.28;;;;;;;;;;4720592;30;20060;-87
2022/04/24 10:57:42;;;;;;;12.45;3.42;;;;;;;;;;4736389;30;20075;-86
2022/04/24 11:00:23;;;;;;;6.57;3.97;;;;;;;;;;4705704;30;20052;-87
2022/04/24 11:02:50;;;;;;;11.65;4.47;;;;;;;;;;4734589;30;20061;-87
2022/04/24 11:05:20;;;;;;;11.13;3.75;;;;;;;;;;4705378;30;20507;-87
2022/04/24 11:07:47;;;;;;;8.57;4.30;;;;;;;;;;4736403;30;20139;-89
2022/04/24 11:10:16;;;;;;;8.45;3.72;;;;;;;;;;4735824;30;20087;-91
2022/04/24 11:12:42;;;;;;;5.72;4.05;;;;;;;;;;4735692;30;20080;-93
2022/04/24 11:15:10;;;;;;;7.53;3.95;;;;;;;;;;4708036;30;20119;-92
2022/04/24 11:17:36;;;;;;;11.18;4.47;;;;;;;;;;4706484;30;20095;-92
2022/04/24 11:20:10;;;;;;;5.32;4.75;;;;;;;;;;4736144;30;20053;-91
2022/04/24 11:22:52;;;;;;;10.23;4.05;;;;;;;;;;4720089;30;20517;-93
2022/04/24 11:25:30;;;;;;;6.40;3.75;;;;;;;;;;4720198;30;20452;-89
2022/04/24 11:27:57;;;;;;;9.02;4.13;;;;;;;;;;4734103;30;20063;-88
2022/04/24 11:30:31;;;;;;;7.32;5.07;;;;;;;;;;4705394;30;20101;-92
2022/04/24 11:33:15;;;;;;;5.47;4.70;;;;;;;;;;4734713;30;20079;-92
2022/04/24 11:35:41;;;;;;;;;;;14.60;99.90;;;;;;4735240;30;20045;-89
2022/04/24 11:38:12;;;;;;;11.35;4.57;;;14.40;99.90;;;;;;4734616;30;19929;-89
2022/04/24 11:40:48;;;;;;;7.90;4.40;;;;;;;;;;4719470;30;20135;-88
2022/04/24 11:43:15;;;;;;;6.72;4.10;;;;;;;;;;4720355;30;20056;-91
2022/04/24 11:51:12;;;;;;;5.32;4.15;;;;;;;;;;4719574;30;20056;-91
2022/04/24 11:53:39;;;;;;;6.95;3.58;;;;;;;;;;4735616;30;20052;-90
2022/04/24 11:56:05;;;;;;;8.02;4.72;;;;;;;;;;4735222;30;20063;-90
2022/04/24 11:58:41;;;;;;;6.97;4.78;;;;;;;;;;4720090;30;20128;-93
2022/04/24 12:01:13;;;;;;;8.40;4.50;;;;;;;;;;4734061;30;20053;-90
2022/04/24 12:03:44;;;;;;;8.27;4.68;;;;;;;;;;4706110;30;20052;-90
2022/04/24 12:06:11;;;;;;;10.05;4.65;;;;;;;;;;4720742;30;20056;-89
2022/04/24 12:08:52;;;;;;;9.02;4.43;;;;;;;;;;4723090;30;20084;-90
2022/04/24 12:11:25;;;;;;;8.52;5.03;;;;;;;;;;4708784;30;20052;-90
2022/04/24 12:14:10;;;;;;;6.18;4.47;;;;;;;;;;4738499;30;20052;-89
2022/04/24 12:16:38;;;;;;;9.25;5.15;;;;;;;;;;4737721;30;20064;-89
2022/04/24 12:19:04;;;;;;;7.78;4.30;;;;;;;;;;4723692;30;20361;-91
2022/04/24 12:21:31;;;;;;;7.10;4.63;;;;;;;;;;4738785;30;20052;-89
2022/04/24 12:23:58;;;;;;;8.13;5.20;;;;;;;;;;4709373;30;20053;-88
2022/04/24 12:26:24;;;;;;;10.38;4.65;;;;;;;;;;4738751;30;20055;-91
2022/04/24 12:28:51;;;;;;;7.63;4.43;;;;;;;;;;4737042;30;20060;-89
2022/04/24 12:31:23;;;;;;;8.30;4.53;;;;;;;;;;4708001;30;20052;-89
2022/04/24 12:33:50;;;;;;;9.60;4.55;;;;;;;;;;4707994;30;20139;-91
2022/04/24 12:36:16;;;;;;;8.30;5.13;;;;;;;;;;4738111;30;20425;-89
2022/04/24 12:38:54;;;;;;;7.85;5.13;;;;;;;;;;4738892;30;20052;-88
2022/04/24 12:41:21;;;;;;;6.70;4.40;;;;;;;;;;4707846;30;20057;-88
2022/04/24 12:43:48;;;;;;;5.55;4.97;;;;;;;;;;4707825;30;20049;-88
2022/04/24 12:46:14;;;;;;;9.10;4.65;;;;;;;;;;4707976;30;20088;-87
2022/04/24 12:48:48;;;;;;;7.70;4.70;;;;;;;;;;4707751;30;20055;-88
2022/04/24 12:51:14;;;;;;;6.47;3.97;;;;;;;;;;4707833;30;20522;-88
2022/04/24 12:53:43;;;;;;;10.02;4.53;;;;;;;;;;4708158;30;20092;-88
2022/04/24 12:56:09;;;;;;;7.70;4.03;;;;;;;;;;4707790;30;20566;-88
2022/04/24 12:58:36;;;;;;;6.88;4.30;;;;;;;;;;4736714;30;20122;-89
2022/04/24 13:01:02;;;;;;;8.05;4.63;;;;;;;;;;4707548;30;20140;-88
2022/04/24 13:03:28;;;;;;;5.03;3.97;;;;;;;;;;4737750;30;20049;-87
2022/04/24 13:05:54;;;;;;;10.20;4.30;;;;;;;;;;4737516;30;20059;-88
2022/04/24 13:08:20;;;;;;;6.28;4.10;;;;;;;;;;4736578;30;20110;-88
2022/04/24 13:10:46;;;;;;;6.85;3.38;;;;;;;;;;4736593;30;20102;-88
2022/04/24 13:13:13;;;;;;;8.82;4.57;;;;;;;;;;4737536;30;20052;-87
2022/04/24 13:15:39;;;;;;;9.75;4.28;;;;;;;;;;4736489;30;20107;-90
2022/04/24 13:18:08;;;;;;;8.50;4.13;;;;;;;;;;4721231;30;20140;-88
2022/04/24 13:20:36;;;;;;;9.60;3.60;;;;;;;;;;4707916;30;20201;-88
2022/04/24 13:23:07;;;;;;;8.13;4.00;;;;;;;;;;4722324;30;20147;-89
2022/04/24 13:25:36;;;;;;;4.95;3.67;;;;;;;;;;4736318;30;20253;-88
2022/04/24 13:28:03;;;;;;;5.43;3.65;;;;;;;;;;4736200;30;20118;-89
2022/04/24 13:30:30;;;;;;;3.78;3.03;;;;;;;;;;4738114;30;20491;-88
2022/04/24 13:32:56;;;;;;;4.57;3.47;;;;;;;;;;4706820;30;20139;-88
2022/04/24 13:35:22;;;;;;;5.95;3.15;;;;;;;;;;4736186;30;20067;-89
2022/04/24 13:40:33;;;;;;;5.13;3.80;;;;;;;;;;4737044;30;20056;-88
2022/04/24 13:42:59;;;;;;;8.80;2.83;;;;;;;;;;4735749;30;20143;-89
2022/04/24 13:45:26;;;;;;;5.70;3.10;;;;;;;;;;4735809;30;20053;-88
2022/04/24 13:47:53;;;;;;;5.25;3.25;;;;;;;;;;4706945;30;20084;-89
2022/04/24 13:50:19;;;;;;;4.30;2.85;;;;;;;;;;4707525;30;20053;-87
2022/04/24 13:52:46;;;;;;;8.60;3.10;;;;;;;;;;4706647;30;20098;-88
2022/04/24 13:55:15;;;;;;;8.05;3.47;;;;;;;;;;4735552;30;20050;-88
2022/04/24 13:57:42;;;;;;;6.07;3.17;;;14.80;99.90;;;;;;4706367;30;20524;-87
2022/04/24 14:00:12;;;;;;;5.35;4.03;;;;;;;;;;4720980;30;20048;-87
2022/04/24 14:02:40;;;;;;;6.65;3.13;;;14.90;99.90;;;;;;4706630;30;20112;-88
2022/04/24 14:05:07;;;;;;;6.75;3.03;;;14.80;99.90;;;;;;4737048;30;20128;-92
2022/04/24 14:07:34;;;;;;;11.95;3.28;;;;;;;;;;4721077;30;20068;-89
2022/04/24 14:10:00;;;;;;;6.78;3.20;;;;;;;;;;4735667;30;20139;-89
2022/04/24 14:12:26;;;;;;;6.32;3.53;;;;;;;;;;4721857;30;20088;-92
2022/04/24 14:14:52;;;;;;;5.35;3.15;;;;;;;;;;4708155;30;20443;-92
2022/04/24 14:17:18;;;;;;;4.85;3.30;;;;;;;;;;4707912;30;20049;-91
2022/04/24 14:19:44;;;;;;;4.82;3.08;;;;;;;;;;4707730;30;20476;-93
2022/04/24 14:22:12;;;;;;;5.25;3.60;;;;;;;;;;4736219;30;20507;-88
2022/04/24 14:24:38;;;;;;;6.55;3.00;;;;;;;;;;4707847;30;20399;-89
2022/04/24 14:27:04;;;;;;;3.60;3.17;;;;;;;;;;4736778;30;20575;-90
2022/04/24 14:29:31;;;;;;;3.33;3.03;;;;;;;;;;4721793;30;20052;-90
2022/04/24 14:31:57;;;;;;;6.85;3.15;;;;;;;;;;4706683;30;20180;-87
2022/04/24 14:34:24;;;;;;;5.13;3.47;;;;;;;;;;4707283;30;20105;-88
2022/04/24 14:36:51;;;;;;;4.97;3.35;;;;;;;;;;4737807;30;20062;-88
2022/04/24 14:39:17;;;;;;;7.15;3.63;;;;;;;;;;4735886;30;20069;-88
2022/04/24 14:41:43;;;;;;;9.63;4.15;;;;;;;;;;4735682;30;20119;-89
2022/04/24 14:44:09;;;;;;;6.85;3.83;;;;;;;;;;4707745;30;20072;-88
2022/04/24 14:57:35;;;;;;;3.88;3.13;;;;;;;;;;4737194;30;20060;-89